Tiempo atmosférico en la estación meteorológica de Cillórigo de Liébana, Tama, Cantabria (250 m.)



Fecha
DESCASC
Temp. máxima en grados centígrados (hora)
DESCASC
Temp. mínima en grados centígrados (hora)
DESCASC
Temp. media en grados centígrados
DESCASC
Racha de viento máxima en m/sg (hora)
DESCASC
Velocidad máxima media en intervalos de 10 minutos(hora)
DESCASC
Precipitaciones diarias en mm
DESCASC
Precipitaciones de 00:00 a 06:00 en mm
DESCASC
Precipitaciones de 06:00 a 12:00 en mm
DESCASC
Precipitaciones de 12:00 a 18:00 en mm
DESCASC
Precipitaciones de 18:00 a 24:00 en mm
DESCASC
08-12-2019 10.1 (16:20) 2.3 (02:00) 6.2 3.89 (23:10) 2.22 (23:10) 3 0 1.8 1.2 0
07-12-2019 12.7 (14:40) 2.8 (08:50) 7.7 3.33 (03:40) 2.22 (04:50) 0 0 0 0 0
06-12-2019 9.9 (15:50) 2.1 (08:40) 6 4.72 (07:40) 2.5 (07:40) 0 0 0 0 0
05-12-2019 8.6 (16:10) 4.4 (00:00) 6.5 3.06 (23:20) 1.94 (23:50) 3.6 2.4 1.2 0 0
04-12-2019 12.1 (15:50) -1.2 (-00:0) 5.5 6.67 (17:10) 3.06 (17:20) 0 0 0 0 0
03-12-2019 9.8 (14:40) 0.1 (00:00) 5 3.61 (15:40) 2.22 (16:50) 2.6 2.2 0.4 0 0
02-12-2019 9.8 (13:00) 5 (00:00) 7.4 9.44 (14:50) 4.17 (13:50) 21.2 5.4 12.8 2.8 0.2
01-12-2019 12.4 (14:50) 4.5 (00:00) 8.4 5.83 (15:00) 2.78 (15:00) 23.8 0.2 0.6 5.8 17.2
30-11-2019 13.7 (16:50) 5 (00:00) 9.3 10 (04:10) 6.11 (04:10) 8 0 5.2 2.6 0.2
29-11-2019 16 (14:40) 5.5 (00:00) 10.8 3.06 (16:50) 1.39 (00:10) 0.2 0.2 0 0 0
28-11-2019 11.7 (15:00) 3.4 (00:00) 7.5 6.39 (19:20) 3.06 (19:20) 8.4 0 0 5.8 2.6
27-11-2019 16.7 (13:10) 4.9 (00:00) 10.8 10 (02:00) 5.56 (00:30) 0 0 0 0 0
26-11-2019 21.8 (14:50) 6.2 (00:00) 14 17.22 (16:50) 7.5 (16:40) 0.4 0 0 0 0.4
25-11-2019 16.1 (14:20) 3.5 (00:00) 9.8 5.56 (16:10) 2.22 (15:00) 0 0 0 0 0
24-11-2019 13.4 (16:10) 4.5 (00:00) 8.9 9.44 (20:20) 3.61 (20:20) 0.4 0 0.2 0 0.2
23-11-2019 12.2 (12:10) 5.2 (00:00) 8.7 22.5 (07:10) 6.67 (11:00) 21.6 15.8 1.2 4.6 0
22-11-2019 15.9 (14:50) 5.6 (00:00) 10.7 12.22 (19:40) 6.94 (08:40) 0.2 0 0.2 0 0
21-11-2019 14.8 (14:30) 3.4 (00:00) 9.1 6.67 (19:00) 3.61 (22:20) 0 0 0 0 0
20-11-2019 14.6 (14:00) 2.1 (00:00) 8.4 7.5 (16:30) 4.44 (23:40) 0 0 0 0 0
19-11-2019 11 (15:50) 1 (00:00) 6 3.06 (05:30) 2.22 (05:10) 0 0 0 0 0
18-11-2019 10.1 (15:10) 4.1 (00:00) 7.1 4.17 (00:10) 2.5 (00:30) 12.2 7.2 5 0 0
17-11-2019 13 (16:30) 4.6 (00:00) 8.8 6.67 (17:20) 2.78 (17:20) 10.2 0 1.2 0.2 8.8
16-11-2019 8.5 (15:40) 1.4 (00:00) 4.9 3.61 (23:40) 1.94 (23:40) 0.2 0 0.2 0 0
15-11-2019 4.4 (15:10) 1.5 (00:00) 3 6.11 (07:30) 2.5 (11:30) 48.4 10.8 24 8 5.6
14-11-2019 9.7 (13:50) 2.7 (00:00) 6.2 9.44 (01:50) 5 (01:50) 8.2 7.2 0 0.6 0.4
13-11-2019 14.1 (14:50) 6.9 (00:00) 10.5 5.83 (19:10) 3.06 (18:00) 24.8 19.6 5 0 0.2
12-11-2019 12.5 (14:40) 5.8 (00:00) 9.2 3.61 (19:30) 2.22 (19:20) 10 0 0 2.4 7.6
11-11-2019 12.9 (12:00) 5.2 (01:20) 9 17.5 (13:50) 6.94 (14:00) 3.6 0.4 2.4 0.8 0
10-11-2019 11 (14:50) 5.5 (00:00) 8.3 13.89 (11:10) 4.72 (11:20) 16.4 3.6 6.6 5.6 0.6

Gráficas

Temp. máximas Temp. mínimas Temp. medias Precipitaciones Rachas de viento máximas Velocidades máximas media en intervalos de 10 minutos

Datos horarios

Fecha y hora oficial Temperatura (ºC) Velocidad del viento (km/h) Dirección del viento Racha (km/h) Dirección de racha Precipitación (mm) Presión (hPa) Tendencia (hPa) Humedad (%)
2019-12-09 23:00:00 2.8 0 Calma -- -- 0 -- -- 94
2019-12-09 22:00:00 3.9 0 Calma 2 Oeste 0 -- -- 92
2019-12-09 21:00:00 5.4 0 Calma 9 Sur 0 -- -- 88
2019-12-09 20:00:00 7.3 2 Sudoeste 18 Sur 0 -- -- 82
2019-12-09 19:00:00 9.4 11 Sur 27 Norte 0 -- -- 73
2019-12-09 18:00:00 13.3 13 Noroeste 42 Norte 0 -- -- 52
2019-12-09 17:00:00 13.7 19 Noroeste 49 Norte 0 -- -- 51
2019-12-09 16:00:00 14.5 13 Norte 38 Norte 0 -- -- 47
2019-12-09 15:00:00 14.6 19 Norte 39 Nordeste 0 -- -- 50
2019-12-09 14:00:00 15.1 16 Noroeste 39 Norte 0 -- -- 46
2019-12-09 13:00:00 14.9 15 Norte 40 Norte 0 -- -- 49
2019-12-09 12:00:00 13 11 Norte 28 Norte 0 -- -- 58
2019-12-09 11:00:00 8.5 5 Sur 15 Sudeste 0 -- -- 76
2019-12-09 10:00:00 4.7 5 Sur 16 Sudeste 0 -- -- 88
2019-12-09 09:00:00 4.3 8 Sur 21 Sudeste 0 -- -- 87
2019-12-09 08:00:00 4.9 13 Sudeste 31 Sudeste 0 -- -- 83
2019-12-09 07:00:00 5 17 Sur 33 Sudeste 0 -- -- 83
2019-12-09 06:00:00 3.2 12 Sur 21 Sudeste 0 -- -- 99
2019-12-09 05:00:00 2.9 5 Sudeste 15 Este 0 -- -- 98
2019-12-09 04:00:00 3.5 4 Este 16 Sudeste 0 -- -- 97
2019-12-09 03:00:00 4.7 7 Sudeste 19 Sudeste 0 -- -- 95
2019-12-09 02:00:00 5.9 4 Sudeste 21 Sudeste 0 -- -- 95
2019-12-09 01:00:00 7 7 Sudeste 19 Sudeste 0 -- -- 97
2019-12-09 00:00:00 8.1 0 Calma 14 Sur 0 -- -- 99
2019-12-08 23:00:00 8.1 6 Sudeste 9 Sur 0 -- -- 99
2019-12-08 22:00:00 8.1 0 Calma 9 Sudeste 0 -- -- 99
2019-12-08 21:00:00 8.3 2 Sur 5 Oeste 0 -- -- 99
2019-12-08 20:00:00 8.4 2 Sudeste 6 Sudoeste 0 -- -- 99
2019-12-08 19:00:00 7.9 0 Calma 9 Sudeste 0 -- -- 98
2019-12-08 18:00:00 9 2 Sudeste 8 Sudeste 0 -- -- 97
2019-12-08 17:00:00 10 3 Sudoeste 9 Sudeste 0 -- -- 97
2019-12-08 16:00:00 10 0 Calma 8 Oeste 0 -- -- 98
2019-12-08 15:00:00 9.5 0 Calma 6 Noroeste 0 -- -- 99
2019-12-08 14:00:00 8.9 0 Calma 5 Este 0.2 -- -- 99
2019-12-08 13:00:00 7.8 2 Norte 8 Noroeste 1 -- -- 99
2019-12-08 12:00:00 6.7 0 Calma 6 Sudeste 1.4 -- -- 100
2019-12-08 11:00:00 5.6 3 Norte 8 Norte 0.4 -- -- 100
2019-12-08 10:00:00 4.5 0 Calma 4 Noroeste 0 -- -- 100
2019-12-08 09:00:00 3.7 2 Sudeste 6 Sudeste 0 -- -- 100
2019-12-08 08:00:00 3.4 0 Calma 5 Sudeste 0 -- -- 100
2019-12-08 07:00:00 3.1 0 Calma 8 Sur 0 -- -- 100
2019-12-08 06:00:00 2.8 0 Calma 6 Sur 0 -- -- 100
2019-12-08 05:00:00 2.9 0 Calma 6 Sur 0 -- -- 100
2019-12-08 04:00:00 2.9 0 Calma 4 Sudeste 0 -- -- 100
2019-12-08 03:00:00 2.8 2 Sudeste 4 Sur 0 -- -- 100
2019-12-08 02:00:00 2.3 0 Calma 8 Sudoeste 0 -- -- 99
2019-12-08 01:00:00 2.4 0 Calma 5 Sudoeste 0 -- -- 99
2019-12-08 00:00:00 2.8 0 Calma 4 Este 0 -- -- 98
2019-12-07 23:00:00 3.4 0 Calma 4 Oeste 0 -- -- 98
2019-12-07 22:00:00 3.8 0 Calma 2 Oeste 0 -- -- 98
2019-12-07 21:00:00 4.1 0 Calma 3 Sur 0 -- -- 96
2019-12-07 20:00:00 5 0 Calma 2 Sudeste 0 -- -- 95
2019-12-07 19:00:00 6.1 0 Calma 4 Oeste 0 -- -- 93
2019-12-07 18:00:00 7.7 0 Calma 6 Sudeste 0 -- -- 90
2019-12-07 17:00:00 9.6 0 Calma 7 Sudoeste 0 -- -- 86
2019-12-07 16:00:00 11.8 0 Calma 8 Sudoeste 0 -- -- 78
2019-12-07 15:00:00 12.7 4 Sudoeste 5 Oeste 0 -- -- 74
2019-12-07 14:00:00 11.6 0 Calma 5 Oeste 0 -- -- 72
2019-12-07 13:00:00 9.9 0 Calma 4 Sur 0 -- -- 76
2019-12-07 12:00:00 6.6 0 Calma 4 Este 0 -- -- 92
2019-12-07 11:00:00 4.3 0 Calma 5 Sur 0 -- -- 98
2019-12-07 10:00:00 3.1 0 Calma 5 Sur 0 -- -- 97
2019-12-07 09:00:00 2.8 4 Sudeste 6 Sudeste 0 -- -- 98
2019-12-07 08:00:00 3.2 3 Sudeste 8 Sur 0 -- -- 98
2019-12-07 07:00:00 3.3 4 Sur 10 Sur 0 -- -- 97
2019-12-07 06:00:00 3.5 3 Sur 10 Sudeste 0 -- -- 97
2019-12-07 05:00:00 3.8 7 Sudeste 12 Sur 0 -- -- 97
2019-12-07 04:00:00 4 2 Sur 12 Sudeste 0 -- -- 97
2019-12-07 03:00:00 4.7 3 Sur 10 Sudeste 0 -- -- 97
2019-12-07 02:00:00 5.5 5 Sur 10 Sur 0 -- -- 97
2019-12-07 01:00:00 5.7 7 Sur 10 Sur 0 -- -- 97
2019-12-07 00:00:00 6 4 Sudeste 9 Sur 0 -- -- 98
2019-12-06 23:00:00 6.3 2 Sur 4 Sudeste 0 -- -- 98
2019-12-06 22:00:00 6.1 0 Calma 4 Noroeste 0 -- -- 98
2019-12-06 21:00:00 5.9 0 Calma 4 Sudeste 0 -- -- 97
2019-12-06 20:00:00 7.2 0 Calma 4 Sudoeste 0 -- -- 96
2019-12-06 19:00:00 8.3 3 Sur 4 Sur 0 -- -- 95
2019-12-06 18:00:00 8.9 0 Calma 6 Sudeste 0 -- -- 92
2019-12-06 17:00:00 9.7 0 Calma 3 Sur 0 -- -- 88
2019-12-06 16:00:00 9.9 0 Calma 5 Norte 0 -- -- 85
2019-12-06 15:00:00 9.5 0 Calma 4 Noroeste 0 -- -- 84
2019-12-06 14:00:00 8.1 0 Calma 3 Noroeste 0 -- -- 87
2019-12-06 13:00:00 7.2 0 Calma 2 Nordeste 0 -- -- 88
2019-12-06 12:00:00 5.5 0 Calma 4 Noroeste 0 -- -- 94
2019-12-06 11:00:00 3.7 0 Calma 3 Sur 0 -- -- 99
2019-12-06 10:00:00 2.5 3 Sur 5 Sur 0 -- -- 99
2019-12-06 09:00:00 2.2 2 Sur 12 Sudeste 0 -- -- 99
2019-12-06 08:00:00 2.4 6 Sudeste 17 Sur 0 -- -- 99
2019-12-06 07:00:00 2.8 3 Sudeste 12 Sur 0 -- -- 99
2019-12-06 06:00:00 3.2 4 Sur 10 Sur 0 -- -- 99
2019-12-06 05:00:00 3.4 6 Sudeste 10 Sudeste 0 -- -- 99
2019-12-06 04:00:00 3.7 7 Sudeste 10 Sudeste 0 -- -- 98
2019-12-06 03:00:00 3.9 0 Calma 7 Sur 0 -- -- 98
2019-12-06 02:00:00 4.1 3 Sur 10 Sudeste 0 -- -- 97
2019-12-06 01:00:00 4.4 2 Sur 9 Sudeste 0 -- -- 97
2019-12-06 00:00:00 5.2 7 Sudeste 11 Sur 0 -- -- 97
2019-12-05 23:00:00 5.9 2 Sur 11 Sudeste 0 -- -- 97
2019-12-05 22:00:00 6.5 2 Sudoeste 10 Sudeste 0 -- -- 98
2019-12-05 21:00:00 6.8 2 Sur 6 Sudeste 0 -- -- 98
2019-12-05 20:00:00 6.5 0 Calma 3 Sudeste 0 -- -- 98
2019-12-05 19:00:00 7.2 0 Calma 2 Sudoeste 0 -- -- 97
2019-12-05 18:00:00 8.2 0 Calma 3 Sudeste 0 -- -- 96
2019-12-05 17:00:00 8.5 0 Calma 2 Sudoeste 0 -- -- 95
2019-12-05 16:00:00 8.5 0 Calma -- -- 0 -- -- 94
2019-12-05 15:00:00 8.4 0 Calma 3 Noroeste 0 -- -- 94
2019-12-05 14:00:00 8 0 Calma 5 Sur 0 -- -- 96
2019-12-05 13:00:00 7.4 0 Calma 5 Sudeste 0 -- -- 97
2019-12-05 12:00:00 6.8 0 Calma 0 Calma 0 -- -- 98
2019-12-05 11:00:00 6.2 0 Calma 5 Este 0 -- -- 99
2019-12-05 10:00:00 5.6 0 Calma 4 Este 0.2 -- -- 99
2019-12-05 09:00:00 5.4 0 Calma 4 Noroeste 0 -- -- 99
2019-12-05 08:00:00 5.3 0 Calma 3 Noroeste 0.4 -- -- 98
2019-12-05 07:00:00 5.2 0 Calma 2 Oeste 0.6 -- -- 98
2019-12-05 06:00:00 5 0 Calma -- -- 0.8 -- -- 98
2019-12-05 05:00:00 4.9 0 Calma 4 Sudoeste 0.8 -- -- 97
2019-12-05 04:00:00 4.9 2 Sur 5 Sudeste 0.4 -- -- 97
2019-12-05 03:00:00 4.7 0 Calma 4 Norte 0.4 -- -- 95
2019-12-05 02:00:00 4.8 0 Calma 5 Sudeste 0 -- -- 93
2019-12-05 01:00:00 4.7 0 Calma 4 Sudeste 0 -- -- 92
2019-12-05 00:00:00 4.4 0 Calma 4 Este 0 -- -- 92
2019-12-04 23:00:00 4.2 4 Sur 10 Sudeste 0 -- -- 92
2019-12-04 22:00:00 3.5 0 Calma 4 Este 0 -- -- 95
2019-12-04 21:00:00 2.9 2 Sur 9 Sur 0 -- -- 93
2019-12-04 20:00:00 4.5 0 Calma 15 Sudeste 0 -- -- 86
2019-12-04 19:00:00 6.1 3 Sur 14 Sur 0 -- -- 83
2019-12-04 18:00:00 8.6 5 Sudeste 24 Noroeste 0 -- -- 68
2019-12-04 17:00:00 10.9 8 Norte 22 Noroeste 0 -- -- 56
2019-12-04 16:00:00 12.1 11 Noroeste 22 Noroeste 0 -- -- 50
2019-12-04 15:00:00 10.8 2 Sudoeste 6 Sudoeste 0 -- -- 68
2019-12-04 14:00:00 9.6 4 Noroeste 7 Oeste 0 -- -- 66
2019-12-04 13:00:00 7.4 0 Calma 4 Noroeste 0 -- -- 78
2019-12-04 12:00:00 4.9 0 Calma 5 Sur 0 -- -- 91
2019-12-04 11:00:00 1.7 0 Calma 4 Sudoeste 0 -- -- 100
2019-12-04 10:00:00 -0.7 0 Calma 3 Sudeste 0 -- -- 100
2019-12-04 09:00:00 -1.2 0 Calma 3 Sur 0 -- -- 99
2019-12-04 08:00:00 -1.2 0 Calma 3 Sur 0 -- -- 99
2019-12-04 07:00:00 -0.9 0 Calma 4 Sur 0 -- -- 98
2019-12-04 06:00:00 -1 0 Calma 3 Sudeste 0 -- -- 99
2019-12-04 05:00:00 -0.7 0 Calma 4 Sudeste 0 -- -- 98
2019-12-04 04:00:00 -0.5 0 Calma 5 Oeste 0 -- -- 98
2019-12-04 03:00:00 -0.4 0 Calma 4 Noroeste 0 -- -- 98
2019-12-04 02:00:00 -0.4 0 Calma 5 Oeste 0 -- -- 97
2019-12-04 01:00:00 0.4 4 Oeste 13 Sudeste 0 -- -- 96
2019-12-04 00:00:00 0.2 4 Sur 11 Sur 0 -- -- 98
2019-12-03 23:00:00 0.3 3 Noroeste 6 Norte 0 -- -- 98
2019-12-03 22:00:00 0.4 0 Calma 3 Oeste 0 -- -- 97
2019-12-03 21:00:00 1.1 0 Calma 4 Sudoeste 0 -- -- 96
2019-12-03 20:00:00 1.9 0 Calma 4 Sur 0 -- -- 95
2019-12-03 19:00:00 3.1 0 Calma 5 Sudoeste 0 -- -- 93
2019-12-03 18:00:00 4.6 0 Calma 7 Sudoeste 0 -- -- 90
2019-12-03 17:00:00 6.1 5 Sudoeste 13 Sudoeste 0 -- -- 86
2019-12-03 16:00:00 9.1 3 Oeste 13 Nordeste 0 -- -- 74
2019-12-03 15:00:00 9.7 5 Norte 13 Nordeste 0 -- -- 64
2019-12-03 14:00:00 9.5 3 Oeste 6 Oeste 0 -- -- 73
2019-12-03 13:00:00 8.4 2 Noroeste 6 Oeste 0 -- -- 81
2019-12-03 12:00:00 6 0 Calma 6 Noroeste 0 -- -- 96
2019-12-03 11:00:00 4.2 4 Sudeste 6 Sur 0 -- -- 98
2019-12-03 10:00:00 4 3 Sudeste 5 Sudeste 0 -- -- 99
2019-12-03 09:00:00 4.1 3 Este 5 Este 0 -- -- 98
2019-12-03 08:00:00 4.2 0 Calma 3 Norte 0.2 -- -- 98
2019-12-03 07:00:00 4.3 3 Noroeste 5 Norte 0.2 -- -- 98
2019-12-03 06:00:00 4.3 0 Calma 5 Sudeste 1 -- -- 98
2019-12-03 05:00:00 4.1 0 Calma 3 Noroeste 0.6 -- -- 98
2019-12-03 04:00:00 4 0 Calma 9 Sur 0.4 -- -- 97
2019-12-03 03:00:00 3.8 4 Sudeste 10 Sur 0.2 -- -- 97
2019-12-03 02:00:00 4.1 0 Calma 6 Este 0 -- -- 96
2019-12-03 01:00:00 4.4 6 Sudeste 10 Sur 0 -- -- 95
2019-12-03 00:00:00 5 3 Sur 8 Sur 0 -- -- 95
2019-12-02 23:00:00 5.3 0 Calma 6 Sudoeste 0 -- -- 93
2019-12-02 22:00:00 5.8 6 Sudeste 11 Noroeste 0.2 -- -- 91
2019-12-02 21:00:00 6.8 4 Sudoeste 16 Norte 0 -- -- 86
2019-12-02 20:00:00 7.2 3 Norte 22 Noroeste 0 -- -- 79
2019-12-02 19:00:00 7.4 8 Norte 21 Noroeste 0 -- -- 79
2019-12-02 18:00:00 7.8 13 Norte 24 Norte 0 -- -- 81
2019-12-02 17:00:00 8 7 Norte 28 Norte 0 -- -- 84
2019-12-02 16:00:00 8.3 15 Norte 33 Norte 0.2 -- -- 83
2019-12-02 15:00:00 8.9 13 Norte 34 Norte 1 -- -- 82
2019-12-02 14:00:00 8.9 10 Noroeste 33 Norte 1.4 -- -- 83
2019-12-02 13:00:00 9.8 12 Norte 27 Noroeste 0.2 -- -- 79
2019-12-02 12:00:00 8.9 7 Norte 17 Sudeste 1.6 -- -- 90
2019-12-02 11:00:00 7.3 8 Sudeste 15 Sur 4.8 -- -- 97
2019-12-02 10:00:00 7 4 Sur 15 Sudeste 0.8 -- -- 98
2019-12-02 09:00:00 6.2 0 Calma 4 Noroeste 2.6 -- -- 99
2019-12-02 08:00:00 6.2 0 Calma 6 Este 1.4 -- -- 98
2019-12-02 07:00:00 6.1 4 Sudeste 8 Sudeste 1.6 -- -- 98
2019-12-02 06:00:00 6 0 Calma 6 Sudeste 1 -- -- 98
2019-12-02 05:00:00 6 4 Sur 10 Sudeste 2.6 -- -- 97
2019-12-02 04:00:00 6.1 2 Sudeste 5 Sur 1.2 -- -- 97
2019-12-02 03:00:00 6.2 4 Sudeste 6 Sudeste 0.2 -- -- 97
2019-12-02 02:00:00 6.2 0 Calma 5 Oeste 0 -- -- 97
2019-12-02 01:00:00 6.2 0 Calma 5 Oeste 0.4 -- -- 96
2019-12-02 00:00:00 6.6 2 Sudeste 4 Sudeste 0.2 -- -- 96
2019-12-01 23:00:00 6.9 2 Sudoeste 4 Sur 2.6 -- -- 97
2019-12-01 22:00:00 7.2 3 Sudeste 5 Sur 4 -- -- 97
2019-12-01 21:00:00 7.6 0 Calma 6 Sur 3.8 -- -- 97
2019-12-01 20:00:00 8.1 0 Calma 2 Sudoeste 3.2 -- -- 97
2019-12-01 19:00:00 8.2 0 Calma 5 Noroeste 3.4 -- -- 96
2019-12-01 18:00:00 8.7 0 Calma 6 Este 0.4 -- -- 95
2019-12-01 17:00:00 9 0 Calma 5 Sudeste 2 -- -- 93
2019-12-01 16:00:00 9.1 0 Calma 16 Norte 3.2 -- -- 90
2019-12-01 15:00:00 11.8 10 Norte 21 Norte 0.2 -- -- 76
2019-12-01 14:00:00 11.6 4 Sudeste 8 Sur 0 -- -- 80
2019-12-01 13:00:00 10.3 0 Calma 5 Noroeste 0 -- -- 88
2019-12-01 12:00:00 9.6 0 Calma 4 Sur 0 -- -- 96
2019-12-01 11:00:00 7.8 0 Calma 2 Norte 0 -- -- 99
2019-12-01 10:00:00 6.9 0 Calma 2 Norte 0 -- -- 99
2019-12-01 09:00:00 6.1 0 Calma 2 Sur 0.2 -- -- 99
2019-12-01 08:00:00 5.9 0 Calma 3 Sur 0 -- -- 99
2019-12-01 07:00:00 5.7 0 Calma 3 Noroeste 0.4 -- -- 99
2019-12-01 06:00:00 5.5 0 Calma 5 Sur 0.2 -- -- 99
2019-12-01 05:00:00 5.3 0 Calma 2 Oeste 0 -- -- 99
2019-12-01 04:00:00 5.1 0 Calma 6 Noroeste 0 -- -- 99
2019-12-01 03:00:00 4.6 3 Sur 5 Sudeste 0 -- -- 98
2019-12-01 02:00:00 4.6 0 Calma 8 Sudeste 0 -- -- 98
2019-12-01 01:00:00 4.7 4 Sudeste 8 Sudeste 0 -- -- 98
2019-12-01 00:00:00 5.3 6 Sudeste 10 Sudeste 0 -- -- 98
2019-11-30 23:00:00 5.6 0 Calma 5 Sudoeste 0 -- -- 98
2019-11-30 22:00:00 5.8 0 Calma 7 Sudeste 0 -- -- 97
2019-11-30 21:00:00 6.2 0 Calma 4 Sudeste 0 -- -- 96
2019-11-30 20:00:00 7.5 0 Calma 9 Sudoeste 0 -- -- 94
2019-11-30 19:00:00 9.3 0 Calma 13 Sudoeste 0.2 -- -- 91
2019-11-30 18:00:00 11.4 4 Sur 15 Sur 0 -- -- 85
2019-11-30 17:00:00 13.5 9 Noroeste 24 Norte 0 -- -- 66
2019-11-30 16:00:00 13.6 10 Noroeste 26 Noroeste 0 -- -- 67
2019-11-30 15:00:00 11.8 7 Norte 13 Norte 0 -- -- 92
2019-11-30 14:00:00 12 5 Sudeste 10 Sudeste 0.4 -- -- 93
2019-11-30 13:00:00 11.7 3 Oeste 17 Sudeste 2.2 -- -- 93
2019-11-30 12:00:00 11.8 4 Noroeste 34 Norte 3.4 -- -- 87
2019-11-30 11:00:00 12.3 16 Norte 33 Norte 1 -- -- 84
2019-11-30 10:00:00 12.9 10 Noroeste 24 Norte 0.6 -- -- 85
2019-11-30 09:00:00 11.8 2 Sudeste 11 Nordeste 0.2 -- -- 92
2019-11-30 08:00:00 12.4 5 Sur 16 Sur 0 -- -- 84
2019-11-30 07:00:00 12.7 10 Sur 24 Sudeste 0 -- -- 82
2019-11-30 06:00:00 12.1 16 Sudeste 26 Sudeste 0 -- -- 82
2019-11-30 05:00:00 11.4 17 Sudeste 36 Sudeste 0 -- -- 80
2019-11-30 04:00:00 8.3 16 Sudeste 30 Sudeste 0 -- -- 100
2019-11-30 03:00:00 5.9 2 Sudoeste 9 Sudeste 0 -- -- 99
2019-11-30 02:00:00 5.6 2 Norte 5 Sudeste 0 -- -- 99
2019-11-30 01:00:00 5.1 0 Calma 5 Sudeste 0 -- -- 98
2019-11-30 00:00:00 5.5 0 Calma 6 Norte 0 -- -- 98
2019-11-29 23:00:00 6 0 Calma 8 Sudeste 0 -- -- 97
2019-11-29 22:00:00 6.6 0 Calma 6 Este 0 -- -- 97
2019-11-29 21:00:00 6.8 0 Calma 4 Sur 0 -- -- 96
2019-11-29 20:00:00 7.4 0 Calma 3 Sudeste 0 -- -- 95
2019-11-29 19:00:00 8.7 0 Calma 3 Sudoeste 0 -- -- 93
2019-11-29 18:00:00 10.4 0 Calma 9 Sudeste 0 -- -- 89
2019-11-29 17:00:00 12.1 3 Sudoeste 11 Oeste 0 -- -- 86
2019-11-29 16:00:00 14.3 4 Oeste 8 Oeste 0 -- -- 77
2019-11-29 15:00:00 15.9 0 Calma 10 Este 0 -- -- 71
2019-11-29 14:00:00 15.6 2 Sudoeste 6 Sudoeste 0 -- -- 71
2019-11-29 13:00:00 15.2 3 Sudoeste 5 Sudoeste 0 -- -- 77
2019-11-29 12:00:00 13.8 0 Calma 3 Noroeste 0 -- -- 84
2019-11-29 11:00:00 11.6 0 Calma 3 Noroeste 0 -- -- 97
2019-11-29 10:00:00 10 0 Calma 2 Nordeste 0 -- -- 99
2019-11-29 09:00:00 9.4 0 Calma 3 Noroeste 0 -- -- 99
2019-11-29 08:00:00 9.4 0 Calma 5 Sudeste 0 -- -- 99
2019-11-29 07:00:00 9.4 0 Calma 9 Sudeste 0 -- -- 99
2019-11-29 06:00:00 9.5 4 Sudeste 9 Sudeste 0 -- -- 99
2019-11-29 05:00:00 9.2 0 Calma 3 Norte 0 -- -- 99
2019-11-29 04:00:00 8.9 0 Calma 4 Sudeste 0.2 -- -- 99
2019-11-29 03:00:00 9.6 2 Norte 5 Norte 0 -- -- 98
2019-11-29 02:00:00 10.2 0 Calma 5 Sur 0 -- -- 98
2019-11-29 01:00:00 10.3 0 Calma 10 Sur 0 -- -- 98
2019-11-29 00:00:00 10.5 9 Sur 14 Sur 0 -- -- 99
2019-11-28 23:00:00 9.7 0 Calma 4 Noroeste 0.2 -- -- 98
2019-11-28 22:00:00 9.9 3 Noroeste 6 Noroeste 0.2 -- -- 97
2019-11-28 21:00:00 10.2 0 Calma 10 Sur 1 -- -- 97
2019-11-28 20:00:00 10.4 3 Sudeste 23 Sudeste 0.6 -- -- 96
2019-11-28 19:00:00 10.5 4 Sudeste 14 Sudeste 0.6 -- -- 97
2019-11-28 18:00:00 10.6 5 Sudeste 10 Sur 1 -- -- 96
2019-11-28 17:00:00 10.8 4 Sudeste 10 Sur 2.2 -- -- 95
2019-11-28 16:00:00 11 3 Sudeste 16 Sur 1.6 -- -- 93
2019-11-28 15:00:00 11.7 2 Sudeste 12 Noroeste 1 -- -- 89
2019-11-28 14:00:00 10.3 0 Calma 6 Nordeste 0 -- -- 87
2019-11-28 13:00:00 9.1 0 Calma 4 Norte 0 -- -- 91
2019-11-28 12:00:00 7.7 2 Norte 6 Nordeste 0 -- -- 98
2019-11-28 11:00:00 5.9 0 Calma 3 Norte 0 -- -- 99
2019-11-28 10:00:00 4.3 2 Nordeste 5 Oeste 0 -- -- 99
2019-11-28 09:00:00 3.4 0 Calma 4 Oeste 0 -- -- 99
2019-11-28 08:00:00 3.6 2 Sur 5 Sudeste 0 -- -- 99
2019-11-28 07:00:00 3.7 0 Calma 7 Sudeste 0 -- -- 98
2019-11-28 06:00:00 4.1 0 Calma 10 Este 0 -- -- 98
2019-11-28 05:00:00 4.6 2 Sudeste 10 Sudeste 0 -- -- 97
2019-11-28 04:00:00 5.2 2 Sudoeste 8 Este 0 -- -- 96
2019-11-28 03:00:00 5.7 0 Calma 8 Este 0 -- -- 96
2019-11-28 02:00:00 6.6 2 Nordeste 6 Este 0 -- -- 95
2019-11-28 01:00:00 7.4 2 Noroeste 10 Este 0 -- -- 95
2019-11-28 00:00:00 7.5 3 Este 12 Oeste 0 -- -- 95
2019-11-27 23:00:00 8.1 0 Calma 8 Este 0 -- -- 93
2019-11-27 22:00:00 8.9 0 Calma 5 Nordeste 0 -- -- 91
2019-11-27 21:00:00 9.6 0 Calma 10 Sudeste 0 -- -- 89
2019-11-27 20:00:00 10.3 3 Sur 8 Sudeste 0 -- -- 86
2019-11-27 19:00:00 11.4 4 Sudeste 9 Sudeste 0 -- -- 81
2019-11-27 18:00:00 12.1 2 Sudoeste 7 Sur 0 -- -- 77
2019-11-27 17:00:00 13.5 0 Calma 9 Norte 0 -- -- 68
2019-11-27 16:00:00 13.8 6 Sudeste 17 Sur 0 -- -- 66
2019-11-27 15:00:00 14.8 10 Sur 23 Sur 0 -- -- 56
2019-11-27 14:00:00 15.9 8 Sudoeste 33 Sur 0 -- -- 53
2019-11-27 06:00:00 -- -- -- -- -- -- -- -- --
2019-11-27 05:00:00 9 5 Sudeste 10 Este 0 -- -- 73
2019-11-27 04:00:00 11.4 3 Norte 20 Sudeste 0 -- -- 62
2019-11-27 03:00:00 14.2 6 Sur 30 Sudeste 0 -- -- 47
2019-11-27 02:00:00 15 18 Sur 36 Sudeste 0 -- -- 43
2019-11-27 01:00:00 14.7 14 Sur 34 Sur 0 -- -- 45
2019-11-27 00:00:00 15.2 17 Sur 37 Sudeste 0 -- -- 46
2019-11-26 23:00:00 15.9 19 Sur 37 Sudeste 0 -- -- 46
2019-11-26 22:00:00 14.6 8 Sur 27 Sudeste 0 -- -- 55
2019-11-26 21:00:00 13.3 10 Sudeste 23 Sudeste 0 -- -- 81
2019-11-26 20:00:00 15.8 11 Sudeste 30 Sur 0.4 -- -- 65
2019-11-26 19:00:00 18.7 18 Sur 52 Sur 0 -- -- 45
2019-11-26 18:00:00 19.8 23 Sur 55 Sur 0 -- -- 38
2019-11-26 17:00:00 20.4 25 Sur 62 Sur 0 -- -- 37
2019-11-26 16:00:00 21.1 20 Sur 48 Sudeste 0 -- -- 37
2019-11-26 15:00:00 21.7 17 Sur 43 Sudeste 0 -- -- 35
2019-11-26 14:00:00 21.1 14 Sur 46 Sur 0 -- -- 38
2019-11-26 13:00:00 19.8 11 Sur 33 Sudeste 0 -- -- 45
2019-11-26 12:00:00 18.8 3 Sudoeste 17 Sur 0 -- -- 63
2019-11-26 11:00:00 18 6 Oeste 17 Sudoeste 0 -- -- 62
2019-11-26 10:00:00 14.8 5 Sudoeste 16 Sudeste 0 -- -- 72
2019-11-26 09:00:00 13.7 11 Sudeste 21 Sudeste 0 -- -- 72
2019-11-26 08:00:00 14.6 8 Sudeste 27 Sudeste 0 -- -- 66
2019-11-26 07:00:00 15.7 11 Sudoeste 40 Oeste 0 -- -- 60
2019-11-26 06:00:00 15.4 14 Sur 37 Sudoeste 0 -- -- 59
2019-11-26 05:00:00 15.6 13 Sudoeste 40 Oeste 0 -- -- 61
2019-11-26 04:00:00 10.7 8 Sur 24 Sudoeste 0 -- -- 92
2019-11-26 03:00:00 6.3 2 Norte 6 Noroeste 0 -- -- 98
2019-11-26 02:00:00 6.6 0 Calma 5 Sudoeste 0 -- -- 98
2019-11-26 01:00:00 6.9 0 Calma 5 Sudoeste 0 -- -- 98
2019-11-26 00:00:00 7.1 0 Calma 7 Sudeste 0 -- -- 97
2019-11-25 23:00:00 7.1 0 Calma 5 Este 0 -- -- 97
2019-11-25 22:00:00 7.8 0 Calma 4 Sur 0 -- -- 95
2019-11-25 21:00:00 9 0 Calma 4 Sur 0 -- -- 94
2019-11-25 20:00:00 10.3 0 Calma 6 Sur 0 -- -- 92
2019-11-25 19:00:00 11.5 2 Sur 10 Noroeste 0 -- -- 88
2019-11-25 18:00:00 13.6 8 Noroeste 17 Noroeste 0 -- -- 82
2019-11-25 17:00:00 14.3 6 Noroeste 20 Norte 0 -- -- 78
2019-11-25 16:00:00 15.3 6 Norte 16 Norte 0 -- -- 75
2019-11-25 15:00:00 15.9 8 Norte 18 Nordeste 0 -- -- 69
2019-11-25 14:00:00 15.7 4 Nordeste 8 Norte 0 -- -- 69
2019-11-25 13:00:00 13.8 0 Calma 3 Oeste 0 -- -- 74
2019-11-25 12:00:00 11.1 0 Calma 3 Nordeste 0 -- -- 84
2019-11-25 11:00:00 8.1 0 Calma 4 Sudeste 0 -- -- 99
2019-11-25 10:00:00 4.6 2 Nordeste 5 Norte 0 -- -- 100
2019-11-25 09:00:00 3.5 0 Calma 2 Sur 0 -- -- 99
2019-11-25 08:00:00 3.9 0 Calma 3 Sudoeste 0 -- -- 98
2019-11-25 07:00:00 4.5 0 Calma 7 Sudeste 0 -- -- 98
2019-11-25 06:00:00 4.9 0 Calma 4 Sur 0 -- -- 97
2019-11-25 05:00:00 5.8 2 Nordeste 7 Sudoeste 0 -- -- 97
2019-11-25 04:00:00 5.8 0 Calma 8 Sudoeste 0 -- -- 96
2019-11-25 03:00:00 6.1 3 Sudeste 8 Sudeste 0 -- -- 96
2019-11-25 02:00:00 6.9 0 Calma 7 Sur 0 -- -- 93
2019-11-25 01:00:00 8 0 Calma 7 Nordeste 0 -- -- 89
2019-11-25 00:00:00 9.7 2 Oeste 15 Oeste 0 -- -- 81
2019-11-24 23:00:00 10.7 3 Sur 12 Sudeste 0 -- -- 77
2019-11-24 22:00:00 11.7 5 Sur 24 Sudoeste 0 -- -- 69
2019-11-24 21:00:00 12.6 9 Sur 34 Sur 0 -- -- 66
2019-11-24 20:00:00 11.9 8 Sudoeste 28 Sur 0.2 -- -- 70
2019-11-24 19:00:00 11.3 5 Sudeste 19 Sudoeste 0 -- -- 75
2019-11-24 18:00:00 11.1 3 Sudeste 15 Sudoeste 0 -- -- 77
2019-11-24 17:00:00 12.2 7 Sudeste 22 Oeste 0 -- -- 71
2019-11-24 16:00:00 13 2 Sur 6 Sudoeste 0 -- -- 68
2019-11-24 15:00:00 10.7 0 Calma 5 Noroeste 0 -- -- 81
2019-11-24 14:00:00 9.8 5 Noroeste 9 Noroeste 0 -- -- 85
2019-11-24 13:00:00 8.9 0 Calma 5 Oeste 0 -- -- 87
2019-11-24 12:00:00 7.4 0 Calma 7 Este 0 -- -- 92
2019-11-24 11:00:00 6 0 Calma 4 Sur 0.2 -- -- 98
2019-11-24 10:00:00 4.9 0 Calma 5 Sudeste 0 -- -- 98
2019-11-24 09:00:00 4.6 3 Sudeste 9 Sudeste 0 -- -- 98
2019-11-24 08:00:00 5.2 0 Calma 11 Sudeste 0 -- -- 97
2019-11-24 07:00:00 5.9 3 Sudeste 12 Sudeste 0 -- -- 97
2019-11-24 06:00:00 5.9 2 Este 10 Sudeste 0 -- -- 98
2019-11-24 05:00:00 5.7 4 Oeste 9 Sudeste 0 -- -- 98
2019-11-24 04:00:00 5.7 2 Sur 13 Sudeste 0 -- -- 98
2019-11-24 03:00:00 5.5 0 Calma 8 Este 0 -- -- 98
2019-11-24 02:00:00 5.5 0 Calma 10 Sudeste 0 -- -- 97
2019-11-24 01:00:00 5.4 6 Sur 16 Sudeste 0 -- -- 97
2019-11-24 00:00:00 5.2 3 Sudeste 13 Sudeste 0 -- -- 97
2019-11-23 23:00:00 5.7 4 Sudeste 18 Sudeste 0 -- -- 97
2019-11-23 22:00:00 5.5 5 Sur 12 Sudeste 0 -- -- 97
2019-11-23 21:00:00 5.5 0 Calma 7 Noroeste 0 -- -- 96
2019-11-23 20:00:00 6.8 5 Este 16 Sudoeste 0 -- -- 95
2019-11-23 19:00:00 7.1 4 Sudoeste 11 Este 0 -- -- 94
2019-11-23 18:00:00 8.4 3 Este 10 Sudeste 0 -- -- 93
2019-11-23 17:00:00 9 0 Calma 6 Norte 1.4 -- -- 93
2019-11-23 16:00:00 9.4 2 Noroeste 8 Oeste 0.8 -- -- 90
2019-11-23 15:00:00 9.5 0 Calma 11 Este 1 -- -- 89
2019-11-23 14:00:00 9.5 4 Sudoeste 15 Noroeste 1.2 -- -- 86
2019-11-23 13:00:00 10.5 7 Norte 49 Norte 0.2 -- -- 68
2019-11-23 12:00:00 12.1 21 Norte 50 Nordeste 0.2 -- -- 51
2019-11-23 11:00:00 11.6 24 Nordeste 47 Norte 0.4 -- -- 52
2019-11-23 10:00:00 10.4 13 Norte 52 Norte 0 -- -- 66
2019-11-23 09:00:00 9.8 13 Norte 44 Nordeste 0.4 -- -- 66
2019-11-23 08:00:00 10.6 20 Nordeste 81 Nordeste 0 -- -- 56
2019-11-23 07:00:00 10.9 18 Nordeste 61 Norte 0.2 -- -- 60
2019-11-23 06:00:00 9.7 15 Norte 45 Norte 4.8 -- -- 75
2019-11-23 05:00:00 8.3 3 Sur 17 Sudeste 5.4 -- -- 96
2019-11-23 04:00:00 8.5 5 Sur 14 Sur 4.4 -- -- 95
2019-11-23 03:00:00 8.5 5 Oeste 10 Noroeste 1.2 -- -- 93
2019-11-23 02:00:00 8.9 0 Calma 6 Sudeste 0 -- -- 87
2019-11-23 01:00:00 9.3 3 Norte 15 Sudeste 0 -- -- 83
2019-11-23 00:00:00 10.3 5 Sur 16 Sudeste 0 -- -- 75
2019-11-22 23:00:00 11.1 12 Sudeste 17 Sudeste 0 -- -- 68
2019-11-22 22:00:00 10.8 5 Sur 21 Sudeste 0 -- -- 76
2019-11-22 21:00:00 13.7 10 Sur 29 Sudeste 0 -- -- 53
2019-11-22 20:00:00 14.2 17 Sur 44 Sur 0 -- -- 49
2019-11-22 19:00:00 14.6 19 Sudeste 40 Sudeste 0 -- -- 47
2019-11-22 18:00:00 13.3 6 Sur 28 Sur 0 -- -- 58
2019-11-22 17:00:00 15.6 10 Sur 31 Sur 0 -- -- 48
2019-11-22 16:00:00 14.8 5 Sur 18 Oeste 0 -- -- 73
2019-11-22 15:00:00 15.9 9 Sudoeste 27 Sudoeste 0 -- -- 62
2019-11-22 14:00:00 14.1 13 Sudoeste 30 Sur 0 -- -- 65
2019-11-22 13:00:00 13.3 14 Sur 35 Sudoeste 0 -- -- 65
2019-11-22 12:00:00 12.1 10 Sur 35 Sudeste 0.2 -- -- 71
2019-11-22 11:00:00 13.3 22 Sur 44 Sudeste 0 -- -- 58
2019-11-22 10:00:00 11.8 12 Sur 38 Sur 0 -- -- 60
2019-11-22 09:00:00 11.2 13 Sur 44 Sur 0 -- -- 63
2019-11-22 08:00:00 11.8 16 Sur 41 Sudeste 0 -- -- 58
2019-11-22 07:00:00 11.5 16 Sur 35 Sur 0 -- -- 60
2019-11-22 06:00:00 10.9 10 Sudoeste 22 Sudoeste 0 -- -- 59
2019-11-22 05:00:00 9 14 Sudeste 21 Sudeste 0 -- -- 69
2019-11-22 04:00:00 8.6 13 Sudeste 21 Sudeste 0 -- -- 70
2019-11-22 03:00:00 8.4 13 Sudeste 22 Sudeste 0 -- -- 68
2019-11-22 02:00:00 7.4 14 Sur 21 Sudeste 0 -- -- 73
2019-11-22 01:00:00 6.8 16 Sudeste 26 Sudeste 0 -- -- 76
2019-11-22 00:00:00 5.6 4 Sudoeste 16 Sudeste 0 -- -- 83
2019-11-21 23:00:00 5.9 9 Sur 20 Sudeste 0 -- -- 79
2019-11-21 22:00:00 5 2 Oeste 15 Sur 0 -- -- 84
2019-11-21 21:00:00 5.2 4 Sudoeste 15 Sur 0 -- -- 82
2019-11-21 20:00:00 6 8 Sudeste 22 Sudeste 0 -- -- 75
2019-11-21 19:00:00 7.3 12 Sudeste 24 Sudeste 0 -- -- 69
2019-11-21 18:00:00 7.6 2 Nordeste 10 Oeste 0 -- -- 75
2019-11-21 17:00:00 10.5 4 Oeste 18 Sur 0 -- -- 60
2019-11-21 16:00:00 14.5 10 Sur 18 Sur 0 -- -- 41
2019-11-21 15:00:00 14.7 8 Sur 23 Sur 0 -- -- 39
2019-11-21 14:00:00 14.5 9 Sur 21 Sur 0 -- -- 40
2019-11-21 13:00:00 14.2 4 Sur 10 Sudeste 0 -- -- 42
2019-11-21 12:00:00 10.8 0 Calma 6 Oeste 0 -- -- 75
2019-11-21 11:00:00 8.2 0 Calma 4 Este 0 -- -- 89
2019-11-21 10:00:00 4.2 2 Sudeste 5 Este 0 -- -- 99
2019-11-21 09:00:00 3.8 0 Calma 7 Oeste 0 -- -- 98
2019-11-21 08:00:00 4.4 2 Oeste 5 Sudeste 0 -- -- 97
2019-11-21 07:00:00 4.3 2 Sudeste 5 Sudoeste 0 -- -- 98
2019-11-21 06:00:00 3.7 2 Sudeste 4 Norte 0 -- -- 97
2019-11-21 05:00:00 3.5 0 Calma 5 Sudeste 0 -- -- 97
2019-11-21 04:00:00 3.8 0 Calma 8 Oeste 0 -- -- 96
2019-11-21 03:00:00 3.7 0 Calma 10 Oeste 0 -- -- 95
2019-11-21 02:00:00 3.9 0 Calma 6 Oeste 0 -- -- 93
2019-11-21 01:00:00 5 3 Sur 13 Sudeste 0 -- -- 90
2019-11-21 00:00:00 6.7 5 Sudoeste 26 Sur 0 -- -- 81
2019-11-20 23:00:00 7.2 13 Sudeste 23 Sudeste 0 -- -- 79
2019-11-20 22:00:00 8.3 10 Sudeste 15 Sudeste 0 -- -- 75
2019-11-20 21:00:00 8.8 5 Sudeste 17 Sudeste 0 -- -- 72
2019-11-20 20:00:00 10.5 9 Sur 17 Sur 0 -- -- 64
2019-11-20 19:00:00 11.1 5 Sudoeste 21 Sudeste 0 -- -- 62
2019-11-20 18:00:00 11.7 5 Sudeste 23 Sudeste 0 -- -- 60
2019-11-20 17:00:00 12.3 8 Sur 27 Sudeste 0 -- -- 57
2019-11-20 16:00:00 13.1 13 Sur 27 Sur 0 -- -- 55
2019-11-20 15:00:00 13.7 14 Sudeste 24 Sudeste 0 -- -- 56
2019-11-20 14:00:00 14.6 13 Sudeste 26 Sudeste 0 -- -- 53
2019-11-20 13:00:00 14.3 10 Sur 17 Sudoeste 0 -- -- 57
2019-11-20 12:00:00 8.2 0 Calma 4 Oeste 0 -- -- 91
2019-11-20 11:00:00 5.9 0 Calma 4 Noroeste 0 -- -- 98
2019-11-20 10:00:00 4 0 Calma 3 Sudeste 0 -- -- 100
2019-11-20 09:00:00 2.2 0 Calma 4 Este 0 -- -- 99
2019-11-20 08:00:00 2.2 0 Calma 4 Este 0 -- -- 99
2019-11-20 07:00:00 2.5 0 Calma 5 Oeste 0 -- -- 98
2019-11-20 06:00:00 2.8 0 Calma 6 Sur 0 -- -- 98
2019-11-20 05:00:00 3.2 0 Calma 5 Noroeste 0 -- -- 98
2019-11-20 04:00:00 3.1 0 Calma 4 Sudeste 0 -- -- 98
2019-11-20 03:00:00 3.1 0 Calma 6 Oeste 0 -- -- 97
2019-11-20 02:00:00 3.8 0 Calma 6 Este 0 -- -- 97
2019-11-20 01:00:00 4.3 0 Calma 3 Sudeste 0 -- -- 97
2019-11-20 00:00:00 4.3 0 Calma 4 Noroeste 0 -- -- 97
2019-11-19 23:00:00 4.7 2 Sudeste 4 Sudeste 0 -- -- 97
2019-11-19 22:00:00 4.8 2 Sur 4 Sur 0 -- -- 96
2019-11-19 21:00:00 4.6 0 Calma 4 Sudeste 0 -- -- 96
2019-11-19 20:00:00 4.8 0 Calma 4 Sur 0 -- -- 93
2019-11-19 19:00:00 5.9 0 Calma 5 Sudoeste 0 -- -- 91
2019-11-19 18:00:00 7.7 0 Calma 10 Sudoeste 0 -- -- 86
2019-11-19 17:00:00 9.8 3 Sudoeste 10 Sudoeste 0 -- -- 80
2019-11-19 16:00:00 11 0 Calma 4 Noroeste 0 -- -- 78
2019-11-19 15:00:00 10.5 0 Calma 5 Sudeste 0 -- -- 75
2019-11-19 14:00:00 8.9 2 Noroeste 5 Noroeste 0 -- -- 79
2019-11-19 13:00:00 7.4 0 Calma 5 Este 0 -- -- 86
2019-11-19 12:00:00 4.3 0 Calma 3 Nordeste 0 -- -- 96
2019-11-19 11:00:00 2.9 2 Este 4 Este 0 -- -- 98
2019-11-19 10:00:00 1.8 0 Calma 4 Sur 0 -- -- 99
2019-11-19 09:00:00 1.2 4 Sur 6 Sur 0 -- -- 99
2019-11-19 08:00:00 1.1 3 Sur 6 Sudeste 0 -- -- 99
2019-11-19 07:00:00 1.1 3 Sur 9 Sudeste 0 -- -- 99
2019-11-19 06:00:00 1.4 6 Sudeste 11 Sur 0 -- -- 98
2019-11-19 05:00:00 1.9 7 Sudeste 11 Sudeste 0 -- -- 98
2019-11-19 04:00:00 2.4 5 Sur 9 Sur 0 -- -- 98
2019-11-19 03:00:00 2.8 6 Sudeste 11 Sudeste 0 -- -- 98
2019-11-19 02:00:00 2.8 3 Sudeste 9 Sudeste 0 -- -- 98
2019-11-19 01:00:00 3.4 2 Sur 4 Sur 0 -- -- 98
2019-11-19 00:00:00 4.3 5 Sudeste 9 Sudeste 0 -- -- 98
2019-11-18 23:00:00 4.1 3 Sur 6 Sudeste 0 -- -- 98
2019-11-18 22:00:00 4.8 0 Calma 3 Este 0 -- -- 98
2019-11-18 21:00:00 5.7 0 Calma 4 Oeste 0 -- -- 97
2019-11-18 20:00:00 6.5 0 Calma 4 Sur 0 -- -- 96
2019-11-18 19:00:00 6.8 2 Norte 4 Noroeste 0 -- -- 95
2019-11-18 18:00:00 7.4 0 Calma 5 Este 0 -- -- 93
2019-11-18 17:00:00 8.8 0 Calma 5 Noroeste 0 -- -- 89
2019-11-18 16:00:00 9.9 0 Calma 10 Oeste 0 -- -- 79
2019-11-18 15:00:00 10 5 Oeste 12 Noroeste 0 -- -- 77
2019-11-18 14:00:00 10 2 Este 5 Sur 0 -- -- 80
2019-11-18 13:00:00 8.5 0 Calma 9 Nordeste 0 -- -- 84
2019-11-18 12:00:00 7.4 3 Noroeste 6 Sur 0 -- -- 91
2019-11-18 11:00:00 7.2 0 Calma 6 Sur 0.2 -- -- 96
2019-11-18 10:00:00 6 0 Calma 4 Oeste 0.6 -- -- 97
2019-11-18 09:00:00 5.9 0 Calma 13 Sudeste 0.4 -- -- 97
2019-11-18 08:00:00 5.7 8 Sudeste 14 Sudeste 2.4 -- -- 98
2019-11-18 07:00:00 5.8 0 Calma 6 Sudeste 1.4 -- -- 97
2019-11-18 06:00:00 5.9 0 Calma 6 Sudeste 2 -- -- 97
2019-11-18 05:00:00 5.9 0 Calma 8 Sur 0.6 -- -- 96
2019-11-18 04:00:00 6.2 3 Sudoeste 13 Sudeste 0 -- -- 96
2019-11-18 03:00:00 6.3 3 Sur 9 Sudeste 1.8 -- -- 96
2019-11-18 02:00:00 6.5 5 Sudeste 14 Este 1.6 -- -- 95
2019-11-18 01:00:00 6.8 0 Calma 15 Nordeste 1.2 -- -- 93
2019-11-18 00:00:00 7.5 9 Nordeste 21 Norte 2.2 -- -- 87
2019-11-17 23:00:00 6.7 2 Sudoeste 9 Sudeste 1.2 -- -- 96
2019-11-17 22:00:00 6.9 2 Este 6 Sudeste 1.4 -- -- 96
2019-11-17 21:00:00 7.1 3 Sudeste 9 Este 1.2 -- -- 95
2019-11-17 20:00:00 7.4 3 Sudoeste 8 Sudoeste 2.2 -- -- 93
2019-11-17 19:00:00 8.1 2 Sur 15 Nordeste 0.6 -- -- 87
2019-11-17 18:00:00 10.3 9 Nordeste 24 Noroeste 0.2 -- -- 69
2019-11-17 17:00:00 12.1 3 Noroeste 8 Oeste 0 -- -- 70
2019-11-17 16:00:00 12.5 3 Noroeste 15 Noroeste 0 -- -- 70
2019-11-17 15:00:00 12.3 8 Noroeste 21 Norte 0 -- -- 64
2019-11-17 14:00:00 10.4 5 Noroeste 12 Norte 0 -- -- 85
2019-11-17 13:00:00 8.9 4 Noroeste 10 Norte 0 -- -- 86
2019-11-17 12:00:00 7 0 Calma 5 Norte 0 -- -- 95
2019-11-17 11:00:00 6.1 2 Noroeste 5 Noroeste 0 -- -- 98
2019-11-17 10:00:00 5.5 2 Norte 11 Sudeste 0.2 -- -- 98
2019-11-17 09:00:00 5 2 Nordeste 6 Noroeste 0 -- -- 98
2019-11-17 08:00:00 4.9 3 Norte 8 Sudeste 1 -- -- 98
2019-11-17 07:00:00 4.8 0 Calma 7 Este 0 -- -- 97
2019-11-17 06:00:00 4.7 5 Sudeste 8 Sudeste 0 -- -- 98
2019-11-17 05:00:00 4.9 0 Calma 7 Este 0 -- -- 97
2019-11-17 04:00:00 4.7 0 Calma 5 Oeste 0 -- -- 97
2019-11-17 03:00:00 4.7 4 Norte 8 Noroeste 0 -- -- 97
2019-11-17 02:00:00 4.6 0 Calma 8 Sudeste 0 -- -- 97
2019-11-17 01:00:00 4.6 2 Este 4 Nordeste 0 -- -- 97
2019-11-17 00:00:00 4.6 0 Calma 13 Sudeste 0 -- -- 97
2019-11-16 23:00:00 4.2 2 Sur 5 Sudeste 0 -- -- 98
2019-11-16 22:00:00 4.5 0 Calma 6 Noroeste 0 -- -- 97
2019-11-16 21:00:00 4.6 0 Calma 5 Sudoeste 0 -- -- 96
2019-11-16 20:00:00 5.3 3 Nordeste 6 Noroeste 0 -- -- 95
2019-11-16 19:00:00 5.9 2 Oeste 8 Sudeste 0 -- -- 94
2019-11-16 18:00:00 6.6 4 Noroeste 9 Oeste 0 -- -- 91
2019-11-16 17:00:00 7.6 4 Norte 9 Norte 0 -- -- 88
2019-11-16 16:00:00 8.5 2 Sudeste 6 Sudeste 0 -- -- 87
2019-11-16 15:00:00 8.3 3 Sudoeste 7 Noroeste 0 -- -- 85
2019-11-16 14:00:00 7.4 2 Noroeste 10 Noroeste 0 -- -- 86
2019-11-16 13:00:00 5.9 4 Norte 9 Sudeste 0 -- -- 88
2019-11-16 12:00:00 4.6 4 Sudeste 11 Este 0 -- -- 94
2019-11-16 11:00:00 3.4 4 Noroeste 9 Sudeste 0.2 -- -- 96
2019-11-16 10:00:00 2.4 3 Noroeste 8 Sudeste 0 -- -- 98
2019-11-16 09:00:00 1.8 3 Sudoeste 5 Sur 0 -- -- 98
2019-11-16 08:00:00 1.6 3 Sudoeste 8 Sudeste 0 -- -- 99
2019-11-16 07:00:00 1.8 5 Sudeste 9 Sur 0 -- -- 99
2019-11-16 06:00:00 1.8 2 Oeste 5 Oeste 0 -- -- 99
2019-11-16 05:00:00 1.5 3 Noroeste 6 Sudeste 0 -- -- 99
2019-11-16 04:00:00 1.6 3 Sudoeste 9 Sudeste 0 -- -- 98
2019-11-16 03:00:00 1.9 4 Sur 7 Sur 0 -- -- 98
2019-11-16 02:00:00 2 0 Calma 7 Sudeste 0 -- -- 98
2019-11-16 01:00:00 2 2 Noroeste 8 Oeste 0 -- -- 97
2019-11-16 00:00:00 2.6 0 Calma 9 Sudeste 0 -- -- 96
2019-11-15 23:00:00 3.2 5 Sudeste 8 Sudeste 0.6 -- -- 97
2019-11-15 22:00:00 3.3 0 Calma 8 Sur 1.4 -- -- 97
2019-11-15 21:00:00 3.4 2 Oeste 9 Sudeste 1.2 -- -- 97
2019-11-15 20:00:00 3.7 4 Sudeste 8 Este 1.6 -- -- 97
2019-11-15 19:00:00 3.6 3 Sur 9 Oeste 0.8 -- -- 96
2019-11-15 18:00:00 3.8 2 Sudeste 8 Sudeste 0.2 -- -- 95
2019-11-15 17:00:00 3.8 5 Oeste 13 Oeste 1.4 -- -- 94
2019-11-15 16:00:00 4.1 4 Sur 13 Oeste 1.8 -- -- 95
2019-11-15 15:00:00 4.1 3 Este 5 Este 1 -- -- 94
2019-11-15 14:00:00 3.3 2 Sudeste 12 Sudeste 1 -- -- 96
2019-11-15 13:00:00 2.9 2 Noroeste 7 Sudeste 2.6 -- -- 97
2019-11-15 12:00:00 3 6 Sudeste 18 Oeste 3.4 -- -- 97
2019-11-15 11:00:00 3.5 0 Calma 14 Sudeste 4.2 -- -- 98
2019-11-15 10:00:00 3.1 0 Calma 11 Este 4.6 -- -- 98
2019-11-15 09:00:00 3.3 5 Noroeste 15 Sudeste 2.8 -- -- 97
2019-11-15 08:00:00 2.2 9 Sudeste 22 Sudeste 5 -- -- 98
2019-11-15 07:00:00 1.8 4 Norte 11 Noroeste 4 -- -- 98
2019-11-15 06:00:00 2 3 Este 14 Este 4 -- -- 95
2019-11-15 05:00:00 3.4 5 Este 15 Sudeste 2.8 -- -- 96
2019-11-15 04:00:00 3.7 5 Este 16 Sur 1.8 -- -- 96
2019-11-15 03:00:00 3.8 3 Sudeste 11 Sudeste 1 -- -- 97
2019-11-15 02:00:00 3.7 6 Sudeste 10 Sudeste 0.8 -- -- 98
2019-11-15 01:00:00 3.1 0 Calma 8 Este 0.4 -- -- 98
2019-11-15 00:00:00 2.7 3 Sudeste 6 Sudeste 0 -- -- 97
2019-11-14 23:00:00 3.2 0 Calma 5 Este 0 -- -- 95
2019-11-14 22:00:00 4.3 3 Sudeste 7 Sudeste 0 -- -- 94
2019-11-14 21:00:00 5.3 0 Calma 10 Sudeste 0.2 -- -- 95
2019-11-14 20:00:00 5.3 0 Calma 10 Oeste 0 -- -- 93
2019-11-14 19:00:00 6 0 Calma 14 Norte 0.2 -- -- 91
2019-11-14 18:00:00 6.8 6 Norte 26 Noroeste 0.6 -- -- 82
2019-11-14 17:00:00 7.8 2 Oeste 22 Noroeste 0 -- -- 74
2019-11-14 16:00:00 8.7 10 Norte 23 Noroeste 0 -- -- 63
2019-11-14 15:00:00 8.7 8 Norte 18 Norte 0 -- -- 62
2019-11-14 14:00:00 9.6 4 Sudeste 12 Sudeste 0 -- -- 62
2019-11-14 13:00:00 9.1 0 Calma 5 Sudeste 0 -- -- 78
2019-11-14 12:00:00 8.4 2 Sudeste 5 Sudeste 0 -- -- 76
2019-11-14 11:00:00 7 0 Calma 6 Oeste 0 -- -- 85
2019-11-14 10:00:00 4.8 3 Norte 13 Sudeste 0 -- -- 96
2019-11-14 09:00:00 3.5 3 Sur 6 Nordeste 0 -- -- 97
2019-11-14 08:00:00 3.2 5 Norte 11 Oeste 0 -- -- 97
2019-11-14 07:00:00 3.8 4 Sur 10 Sudeste 0 -- -- 96
2019-11-14 06:00:00 4.5 5 Este 11 Sudeste 0 -- -- 95
2019-11-14 05:00:00 5.9 5 Sudeste 11 Sudeste 1 -- -- 94
2019-11-14 04:00:00 6.4 5 Noroeste 17 Oeste 1.6 -- -- 88
2019-11-14 03:00:00 6.9 4 Nordeste 24 Norte 1.6 -- -- 89
2019-11-14 02:00:00 7.8 14 Nordeste 34 Nordeste 1.6 -- -- 79
2019-11-14 01:00:00 7.7 6 Oeste 14 Noroeste 1.4 -- -- 97
2019-11-14 00:00:00 7.4 0 Calma 6 Sudeste 0.2 -- -- 96
2019-11-13 23:00:00 7.1 2 Nordeste 10 Sudeste 0 -- -- 96
2019-11-13 22:00:00 7.4 4 Sudeste 9 Sudeste 0 -- -- 93
2019-11-13 21:00:00 8.6 3 Sur 12 Sudeste 0 -- -- 90
2019-11-13 20:00:00 9.7 9 Sudeste 21 Norte 0 -- -- 87
2019-11-13 19:00:00 11.1 9 Norte 19 Noroeste 0 -- -- 76
2019-11-13 18:00:00 11.3 11 Norte 20 Norte 0 -- -- 76
2019-11-13 17:00:00 12.4 5 Noroeste 17 Noroeste 0 -- -- 73
2019-11-13 16:00:00 13.9 6 Noroeste 13 Noroeste 0 -- -- 69
2019-11-13 15:00:00 13.8 6 Noroeste 15 Noroeste 0 -- -- 67
2019-11-13 14:00:00 13.4 5 Noroeste 15 Norte 0 -- -- 75
2019-11-13 13:00:00 12.9 8 Noroeste 12 Noroeste 0 -- -- 75
2019-11-13 12:00:00 11.3 0 Calma 4 Sudeste 0 -- -- 92
2019-11-13 11:00:00 10.2 3 Sur 10 Sudeste 0.2 -- -- 96
2019-11-13 10:00:00 9.4 3 Sudeste 6 Este 0 -- -- 98
2019-11-13 09:00:00 8.8 3 Sudoeste 6 Oeste 0 -- -- 98
2019-11-13 08:00:00 9.1 2 Sur 9 Sur 1 -- -- 98
2019-11-13 07:00:00 9.1 3 Sudoeste 9 Sur 3.8 -- -- 98
2019-11-13 06:00:00 9.1 4 Sudeste 12 Sudeste 2.6 -- -- 98
2019-11-13 05:00:00 9 4 Sur 14 Sur 2.4 -- -- 98
2019-11-13 04:00:00 8.8 3 Sudeste 9 Sudeste 2.8 -- -- 98
2019-11-13 03:00:00 8.7 3 Sur 6 Norte 4.4 -- -- 98
2019-11-13 02:00:00 8.7 3 Sudeste 6 Sudeste 4.8 -- -- 98
2019-11-13 01:00:00 8.7 4 Sudeste 9 Sudeste 2.6 -- -- 98
2019-11-13 00:00:00 8.8 0 Calma 9 Sur 1.2 -- -- 97
2019-11-12 23:00:00 8.9 0 Calma 5 Sudeste 1.8 -- -- 97
2019-11-12 22:00:00 9 0 Calma 5 Sudeste 0.4 -- -- 96
2019-11-12 21:00:00 9.2 0 Calma 10 Sur 1.2 -- -- 96
2019-11-12 20:00:00 9.4 0 Calma 13 Sudeste 1 -- -- 95
2019-11-12 19:00:00 9.7 8 Sudeste 12 Sudeste 2 -- -- 94
2019-11-12 18:00:00 10.1 6 Sudeste 12 Sudeste 1.8 -- -- 93
2019-11-12 17:00:00 10.7 2 Sur 5 Noroeste 0.4 -- -- 90
2019-11-12 16:00:00 12 0 Calma 2 Oeste 0.2 -- -- 84
2019-11-12 15:00:00 12.5 0 Calma 3 Oeste 0 -- -- 73
2019-11-12 14:00:00 12 0 Calma 9 Nordeste 0 -- -- 66
2019-11-12 13:00:00 10.5 2 Norte 9 Noroeste 0 -- -- 80
2019-11-12 12:00:00 8.4 0 Calma 5 Norte 0 -- -- 87
2019-11-12 11:00:00 7.5 0 Calma 5 Noroeste 0 -- -- 91
2019-11-12 10:00:00 6.8 0 Calma 8 Sur 0 -- -- 94
2019-11-12 09:00:00 6.2 2 Sudoeste 8 Noroeste 0 -- -- 96
2019-11-12 08:00:00 6 0 Calma 8 Este 0 -- -- 95
2019-11-12 07:00:00 5.9 0 Calma 5 Sudeste 0 -- -- 96
2019-11-12 06:00:00 5.9 3 Norte 8 Sur 0 -- -- 95
2019-11-12 05:00:00 5.9 2 Norte 12 Sudeste 0 -- -- 93
2019-11-12 04:00:00 6.2 3 Este 8 Este 0 -- -- 95
2019-11-12 03:00:00 6.3 0 Calma 12 Sudeste 0 -- -- 95
2019-11-12 02:00:00 6.6 0 Calma 6 Sudeste 0 -- -- 96
2019-11-12 01:00:00 6.5 0 Calma 5 Norte 0 -- -- 96
2019-11-12 00:00:00 6.5 0 Calma 6 Sudoeste 0 -- -- 95
2019-11-11 23:00:00 6.8 0 Calma 5 Oeste 0 -- -- 95
2019-11-11 22:00:00 7 0 Calma 7 Sudeste 0 -- -- 93
2019-11-11 21:00:00 7.8 3 Sur 11 Oeste 0 -- -- 89
2019-11-11 20:00:00 8.7 3 Sur 22 Nordeste 0 -- -- 84
2019-11-11 19:00:00 10.3 13 Nordeste 36 Nordeste 0 -- -- 69
2019-11-11 18:00:00 10.7 16 Norte 32 Noroeste 0 -- -- 68
2019-11-11 17:00:00 11.5 14 Nordeste 53 Norte 0.2 -- -- 62
2019-11-11 16:00:00 11.1 14 Norte 46 Este 0 -- -- 70
2019-11-11 15:00:00 11.7 18 Norte 48 Nordeste 0 -- -- 65
2019-11-11 14:00:00 12.3 25 Nordeste 63 Nordeste 0.2 -- -- 58
2019-11-11 13:00:00 12.3 12 Norte 45 Nordeste 0.4 -- -- 70
2019-11-11 12:00:00 12.9 17 Nordeste 52 Norte 0.2 -- -- 68
2019-11-11 11:00:00 8.9 10 Sudeste 26 Sur 1 -- -- 97
2019-11-11 10:00:00 7.1 3 Sudoeste 6 Oeste 0.4 -- -- 99
2019-11-11 09:00:00 6.3 2 Sudeste 7 Noroeste 0.8 -- -- 98
2019-11-11 08:00:00 6 0 Calma 5 Norte 0 -- -- 98
2019-11-11 07:00:00 5.9 0 Calma 4 Noroeste 0 -- -- 98
2019-11-11 06:00:00 5.8 0 Calma 3 Oeste 0.2 -- -- 98
2019-11-11 05:00:00 5.6 0 Calma 4 Noroeste 0 -- -- 97
2019-11-11 04:00:00 5.5 2 Sudeste 6 Sudeste 0.2 -- -- 97
2019-11-11 03:00:00 5.3 0 Calma 6 Sudeste 0 -- -- 97
2019-11-11 02:00:00 5.2 3 Sudeste 10 Sur 0 -- -- 97
2019-11-11 01:00:00 5.3 2 Sudeste 8 Sudeste 0 -- -- 97
2019-11-11 00:00:00 5.5 0 Calma 6 Sur 0 -- -- 97
2019-11-10 23:00:00 5.8 0 Calma 4 Oeste 0 -- -- 97
2019-11-10 22:00:00 6 3 Oeste 9 Sudeste 0 -- -- 96
2019-11-10 21:00:00 6.1 0 Calma 14 Sur 0 -- -- 94
2019-11-10 20:00:00 6.6 3 Sur 15 Sudeste 0.6 -- -- 91
2019-11-10 19:00:00 7.4 11 Sudeste 21 Sudeste 0 -- -- 88
2019-11-10 18:00:00 8.2 8 Sur 30 Nordeste 1 -- -- 84
2019-11-10 17:00:00 9.9 10 Nordeste 29 Norte 0.4 -- -- 67
2019-11-10 16:00:00 8.7 10 Norte 40 Nordeste 1.8 -- -- 77
2019-11-10 15:00:00 10.9 12 Norte 39 Norte 0.4 -- -- 60
2019-11-10 14:00:00 10.2 9 Norte 38 Noroeste 0.6 -- -- 68
2019-11-10 13:00:00 9.4 12 Nordeste 44 Nordeste 1.4 -- -- 73
2019-11-10 12:00:00 10 11 Nordeste 50 Norte 1 -- -- 68
2019-11-10 11:00:00 9 11 Norte 28 Noroeste 1.4 -- -- 75
2019-11-10 10:00:00 6.9 8 Sur 24 Este 1.6 -- -- 90
2019-11-10 09:00:00 6.3 8 Sur 29 Sudeste 0.8 -- -- 94
2019-11-10 08:00:00 5.8 3 Sur 13 Sudeste 1.2 -- -- 95
2019-11-10 07:00:00 5.7 6 Nordeste 15 Sudeste 0.6 -- -- 95
2019-11-10 06:00:00 5.8 4 Norte 14 Noroeste 0.2 -- -- 94
2019-11-10 05:00:00 5.9 4 Sudoeste 18 Este 0.2 -- -- 91
2019-11-10 04:00:00 5.7 4 Este 15 Sudeste 0.2 -- -- 94
2019-11-10 03:00:00 6 7 Sudeste 17 Sudeste 0.4 -- -- 94
2019-11-10 02:00:00 6.5 3 Este 11 Noroeste 0.6 -- -- 95
2019-11-10 01:00:00 6.8 4 Nordeste 18 Sudeste 2 -- -- 92
2019-11-10 00:00:00 7 7 Sudeste 14 Oeste 2.6 -- -- 93